Terminal Aerodrome Forecast
Issued by NWS Buffalo, NY

Home | Current Version | Previous Version | Text Only | Print | Product List | Glossary On
Versions: 1 2 3 4 5 6 7 8 9 10 11 12 13 14 15 16 17 18 19 20 21 22 23 24
000
FTUS41 KBUF 240534
TAFART
TAF
KART 240534Z 2406/2506 26013KT P6SM VCSH OVC030
     FM241000 24007KT P6SM OVC025
     FM241400 20011G18KT P6SM BKN050
     FM241600 20013G26KT P6SM SCT050
     FM241700 20014G26KT P6SM SCT250=

USA.gov is the U.S. government's official web portal to all federal, state and local government web resources and services.